Terminal Aerodrome Forecast
Issued by NWS Wakefield, VA

Home | Current Version | Previous Version | Text Only | Print | Product List | Glossary On
Versions: 1 2 3 4 5 6 7 8 9 10 11 12 13 14 15 16 17
000
FTUS41 KAKQ 020500
TAFORF
TAF
KORF 020539Z 0206/0306 23010KT P6SM SCT050
     FM022100 21010KT P6SM SCT050
     FM030200 24011KT P6SM SCT050 BKN080=

USA.gov is the U.S. government's official web portal to all federal, state and local government web resources and services.